createdAt,value
2022-09-20T00:01:29.171Z,2.42
2022-09-20T00:03:58.903Z,2.30
2022-09-20T00:06:29.393Z,1.90
2022-09-20T00:08:58.796Z,2.15
2022-09-20T00:11:32.688Z,2.10
2022-09-20T00:14:02.717Z,2.10
2022-09-20T00:16:32.623Z,2.63
2022-09-20T00:19:04.455Z,2.05
2022-09-20T00:21:34.031Z,2.15
2022-09-20T00:24:02.166Z,2.10
2022-09-20T00:26:31.395Z,2.58
2022-09-20T00:29:00.919Z,2.47
2022-09-20T00:31:29.087Z,2.22
2022-09-20T00:34:14.877Z,2.10
2022-09-20T00:36:43.525Z,2.35
2022-09-20T00:39:13.469Z,2.05
2022-09-20T00:41:43.771Z,3.00
2022-09-20T00:44:44.195Z,2.65
2022-09-20T00:47:21.938Z,2.20
2022-09-20T00:49:51.152Z,2.00
2022-09-20T00:52:22.585Z,2.60
2022-09-20T00:54:51.544Z,2.03
2022-09-20T00:57:21.109Z,2.13
2022-09-20T00:59:52.007Z,1.80
2022-09-20T01:02:26.700Z,1.88
2022-09-20T01:04:55.261Z,2.15
2022-09-20T01:07:24.064Z,2.07
2022-09-20T01:09:52.571Z,1.92
2022-09-20T01:12:24.550Z,2.00
2022-09-20T01:14:53.508Z,2.20
2022-09-20T01:17:25.792Z,2.03
2022-09-20T01:20:08.967Z,2.20
2022-09-20T01:22:45.662Z,1.88
2022-09-20T01:25:18.178Z,1.88
2022-09-20T01:27:49.818Z,1.70
2022-09-20T01:30:20.399Z,1.50
2022-09-20T01:33:03.220Z,1.77
2022-09-20T01:35:34.860Z,1.77
2022-09-20T01:38:26.890Z,1.70
2022-09-20T01:41:04.673Z,1.80
2022-09-20T01:43:38.816Z,1.58
2022-09-20T01:46:20.098Z,1.67
2022-09-20T01:48:52.603Z,2.10
2022-09-20T01:51:40.588Z,1.63
2022-09-20T01:54:30.313Z,2.10
2022-09-20T01:57:27.499Z,2.25
2022-09-20T02:00:06.917Z,1.90
2022-09-20T02:03:12.749Z,2.00
2022-09-20T02:05:58.498Z,1.95
2022-09-20T02:08:50.365Z,1.92
2022-09-20T02:11:21.476Z,2.17
2022-09-20T02:14:10.671Z,1.90
2022-09-20T02:16:57.211Z,2.20
2022-09-20T02:19:43.411Z,2.00
2022-09-20T02:22:24.104Z,2.35
2022-09-20T02:24:59.396Z,2.35
2022-09-20T02:27:38.337Z,2.73
2022-09-20T02:30:17.844Z,2.30
2022-09-20T02:33:11.180Z,2.30
2022-09-20T02:35:48.429Z,2.47
2022-09-20T02:38:34.480Z,2.05
2022-09-20T02:41:21.150Z,2.10
2022-09-20T02:43:55.873Z,1.98
2022-09-20T02:46:30.022Z,2.45
2022-09-20T02:49:07.368Z,1.90
2022-09-20T02:51:40.940Z,2.03
2022-09-20T02:54:18.507Z,1.90
2022-09-20T02:56:55.762Z,2.22
2022-09-20T02:59:35.050Z,2.20
2022-09-20T03:02:12.133Z,2.30
2022-09-20T03:04:50.988Z,2.60
2022-09-20T03:07:24.360Z,2.10
2022-09-20T03:09:58.336Z,1.85
2022-09-20T03:12:35.574Z,2.28
2022-09-20T03:15:17.095Z,2.40
2022-09-20T03:17:51.226Z,2.40
2022-09-20T03:20:31.449Z,3.77
2022-09-20T03:23:08.634Z,3.50
2022-09-20T03:25:48.488Z,3.20
2022-09-20T03:28:35.414Z,2.45
2022-09-20T03:31:10.836Z,2.15
2022-09-20T03:33:48.943Z,2.37
2022-09-20T03:36:37.194Z,1.75
2022-09-20T03:39:47.003Z,2.40
2022-09-20T03:42:17.870Z,1.70
2022-09-20T03:45:25.540Z,1.80
2022-09-20T03:48:23.811Z,1.97
2022-09-20T03:51:02.750Z,1.70
2022-09-20T03:54:12.249Z,1.98
2022-09-20T03:57:07.862Z,1.80
2022-09-20T04:00:08.615Z,1.88
2022-09-20T04:02:46.390Z,1.67
2022-09-20T04:05:18.996Z,1.70
2022-09-20T04:08:01.739Z,1.17
2022-09-20T04:10:40.034Z,1.40
2022-09-20T04:13:25.129Z,1.80
2022-09-20T04:16:09.984Z,1.37
2022-09-20T04:18:43.297Z,1.58
2022-09-20T04:21:17.535Z,1.58
2022-09-20T04:23:51.962Z,1.77
2022-09-20T04:26:26.104Z,1.35
2022-09-20T04:28:58.502Z,1.40
2022-09-20T04:31:36.833Z,1.48
2022-09-20T04:34:08.510Z,1.30
2022-09-20T04:36:54.370Z,1.40
2022-09-20T04:39:33.759Z,1.70
2022-09-20T04:42:30.271Z,1.73
2022-09-20T04:45:35.756Z,1.63
2022-09-20T04:48:34.583Z,1.40
2022-09-20T04:51:25.904Z,1.70
2022-09-20T04:54:41.587Z,1.55
2022-09-20T04:57:40.316Z,1.97
2022-09-20T05:00:14.593Z,1.75
2022-09-20T05:03:25.683Z,1.30
2022-09-20T05:06:20.710Z,1.17
2022-09-20T05:09:26.992Z,1.50
2022-09-20T05:12:34.661Z,1.30
2022-09-20T05:15:24.441Z,1.20
2022-09-20T05:18:15.117Z,1.30
2022-09-20T05:20:52.178Z,1.20
2022-09-20T05:23:47.764Z,1.40
2022-09-20T05:26:26.901Z,1.13
2022-09-20T05:29:02.027Z,1.30
2022-09-20T05:31:40.823Z,1.58
2022-09-20T05:34:18.174Z,1.35
2022-09-20T05:36:57.566Z,1.20
2022-09-20T05:39:35.803Z,0.90
2022-09-20T05:42:16.030Z,0.90
2022-09-20T05:44:56.405Z,0.95
2022-09-20T05:47:38.002Z,1.17
2022-09-20T05:50:31.164Z,2.05
2022-09-20T05:53:04.912Z,3.20
2022-09-20T05:55:50.041Z,7.18
2022-09-20T05:58:33.464Z,8.25
2022-09-20T06:01:05.571Z,5.57
2022-09-20T06:03:44.204Z,3.80
2022-09-20T06:06:19.828Z,3.20
2022-09-20T06:09:04.818Z,2.50
2022-09-20T06:15:21.622Z,3.10
2022-09-20T06:17:57.217Z,2.63
2022-09-20T06:20:34.343Z,1.73
2022-09-20T06:23:05.563Z,2.47
2022-09-20T06:25:39.574Z,1.80
2022-09-20T06:28:15.147Z,2.17
2022-09-20T06:30:48.478Z,2.75
2022-09-20T06:33:18.262Z,1.60
2022-09-20T06:35:58.836Z,1.60
2022-09-20T06:39:03.122Z,1.90
2022-09-20T06:41:34.409Z,2.08
2022-09-20T06:44:04.379Z,2.38
2022-09-20T06:46:34.396Z,1.90
2022-09-20T06:49:02.276Z,2.22
2022-09-20T06:51:37.926Z,2.50
2022-09-20T06:54:11.703Z,1.80
2022-09-20T06:56:39.602Z,1.20
2022-09-20T06:59:08.492Z,1.60
2022-09-20T07:01:36.856Z,1.48
2022-09-20T07:04:05.117Z,1.95
2022-09-20T07:06:34.739Z,1.67
2022-09-20T07:09:02.844Z,1.98
2022-09-20T07:14:43.388Z,1.33
2022-09-20T07:17:11.041Z,1.67
2022-09-20T07:19:39.055Z,1.30
2022-09-20T07:22:08.384Z,1.02
2022-09-20T07:24:36.418Z,1.00
2022-09-20T07:27:07.197Z,1.35
2022-09-20T07:29:35.589Z,1.45
2022-09-20T07:32:03.553Z,0.85
2022-09-20T07:34:32.055Z,0.90
2022-09-20T07:37:00.393Z,0.73
2022-09-20T07:39:29.773Z,0.70
2022-09-20T07:41:57.747Z,0.70
2022-09-20T07:44:25.450Z,0.73
2022-09-20T07:46:54.338Z,0.73
2022-09-20T07:49:23.106Z,0.43
2022-09-20T07:51:52.407Z,0.73
2022-09-20T07:54:21.015Z,0.80
2022-09-20T07:56:49.952Z,1.20
2022-09-20T07:59:18.351Z,1.33
2022-09-20T08:01:45.989Z,0.70
2022-09-20T08:04:14.622Z,0.80
2022-09-20T08:06:45.037Z,0.57
2022-09-20T08:09:15.448Z,0.75
2022-09-20T08:11:43.870Z,0.93
2022-09-20T08:14:17.875Z,1.10
2022-09-20T08:16:48.372Z,0.65
2022-09-20T08:19:17.802Z,0.77
2022-09-20T08:21:45.859Z,0.85
2022-09-20T08:24:13.816Z,0.57
2022-09-20T08:26:42.886Z,2.00
2022-09-20T08:29:13.420Z,1.40
2022-09-20T08:31:43.494Z,0.70
2022-09-20T08:34:15.229Z,0.73
2022-09-20T08:36:46.381Z,0.80
2022-09-20T08:42:15.008Z,0.68
2022-09-20T08:44:57.741Z,0.65
2022-09-20T08:47:30.999Z,0.60
2022-09-20T08:50:00.850Z,0.20
2022-09-20T08:52:36.321Z,0.57
2022-09-20T08:55:10.785Z,0.50
2022-09-20T08:57:39.074Z,0.40
2022-09-20T09:00:08.602Z,0.73
2022-09-20T09:02:38.471Z,0.57
2022-09-20T09:05:17.718Z,0.63
2022-09-20T09:07:45.512Z,0.70
2022-09-20T09:10:13.403Z,0.70
2022-09-20T09:12:48.823Z,0.68
2022-09-20T09:15:27.879Z,0.88
2022-09-20T09:17:57.102Z,1.10
2022-09-20T09:20:26.442Z,2.42
2022-09-20T09:23:03.296Z,1.30
2022-09-20T09:25:34.508Z,1.02
2022-09-20T09:28:05.975Z,0.77
2022-09-20T09:30:35.678Z,0.67
2022-09-20T09:33:26.467Z,0.77
2022-09-20T09:35:57.022Z,0.60
2022-09-20T09:38:27.057Z,2.38
2022-09-20T09:40:57.149Z,1.42
2022-09-20T09:43:29.067Z,0.80
2022-09-20T09:45:58.840Z,0.80
2022-09-20T09:48:30.608Z,0.50
2022-09-20T09:51:10.066Z,0.80
2022-09-20T09:53:38.601Z,0.75
2022-09-20T09:56:42.067Z,0.67
2022-09-20T09:59:34.610Z,0.70
2022-09-20T10:02:15.764Z,0.70
2022-09-20T10:04:53.320Z,0.68
2022-09-20T10:07:29.506Z,0.60
2022-09-20T10:10:06.130Z,0.47
2022-09-20T10:12:52.296Z,0.50
2022-09-20T10:15:29.019Z,0.77
2022-09-20T10:18:10.544Z,0.45
2022-09-20T10:21:05.266Z,0.60
2022-09-20T10:24:02.490Z,0.63
2022-09-20T10:26:45.905Z,0.70
2022-09-20T10:29:23.491Z,0.45
2022-09-20T10:32:00.683Z,1.15
2022-09-20T10:34:57.778Z,1.55
2022-09-20T10:37:36.816Z,0.60
2022-09-20T10:40:14.630Z,0.70
2022-09-20T10:43:05.673Z,0.40
2022-09-20T10:48:33.736Z,0.60
2022-09-20T10:51:08.254Z,0.50
2022-09-20T10:53:45.232Z,0.70
2022-09-20T10:56:26.097Z,0.90
2022-09-20T10:59:30.305Z,0.80
2022-09-20T11:02:15.217Z,0.77
2022-09-20T11:05:10.799Z,0.97
2022-09-20T11:07:52.692Z,0.95
2022-09-20T11:10:25.565Z,0.75
2022-09-20T11:12:59.622Z,1.10
2022-09-20T11:15:31.332Z,0.50
2022-09-20T11:18:05.381Z,0.80
2022-09-20T11:20:37.308Z,0.70
2022-09-20T11:23:11.707Z,0.60
2022-09-20T11:25:47.069Z,0.60
2022-09-20T11:28:20.768Z,0.75
2022-09-20T11:30:57.558Z,1.20
2022-09-20T11:33:30.216Z,0.88
2022-09-20T11:36:01.901Z,0.45
2022-09-20T11:38:36.502Z,0.70
2022-09-20T11:41:10.923Z,0.50
2022-09-20T11:43:44.520Z,0.67
2022-09-20T11:46:16.456Z,0.40
2022-09-20T11:48:47.989Z,0.50
2022-09-20T11:51:46.544Z,0.88
2022-09-20T11:54:38.010Z,1.48
2022-09-20T11:57:08.915Z,0.47
2022-09-20T11:59:38.471Z,0.50
2022-09-20T12:02:19.130Z,0.28
2022-09-20T12:04:53.424Z,0.30
2022-09-20T12:07:25.647Z,0.50
2022-09-20T12:09:58.331Z,0.33
2022-09-20T12:12:41.818Z,0.30
2022-09-20T12:15:25.987Z,0.20
2022-09-20T12:18:09.618Z,0.43
2022-09-20T12:21:17.003Z,0.30
2022-09-20T12:24:07.249Z,0.20
2022-09-20T12:26:46.759Z,0.30
2022-09-20T12:29:52.311Z,0.30
2022-09-20T12:32:55.278Z,0.40
2022-09-20T12:36:16.553Z,0.22
2022-09-20T12:38:50.747Z,0.40
2022-09-20T12:41:28.147Z,0.20
2022-09-20T12:44:02.321Z,0.35
2022-09-20T12:46:51.423Z,0.73
2022-09-20T12:49:54.728Z,0.30
2022-09-20T12:52:47.920Z,0.37
2022-09-20T12:55:30.814Z,1.88
2022-09-20T12:58:01.971Z,0.43
2022-09-20T13:00:36.919Z,0.40
2022-09-20T13:03:13.256Z,0.25
2022-09-20T13:05:45.993Z,0.20
2022-09-20T13:08:18.621Z,0.70
2022-09-20T13:10:51.271Z,0.30
2022-09-20T13:13:38.818Z,0.38
2022-09-20T13:16:08.612Z,0.20
2022-09-20T13:18:38.004Z,0.90
2022-09-20T13:21:09.072Z,1.10
2022-09-20T13:23:48.356Z,0.40
2022-09-20T13:26:17.258Z,0.30
2022-09-20T13:28:51.492Z,0.30
2022-09-20T13:31:36.019Z,0.40
2022-09-20T13:34:17.509Z,0.63
2022-09-20T13:36:49.583Z,0.40
2022-09-20T13:39:27.190Z,0.50
2022-09-20T13:41:55.259Z,0.35
2022-09-20T13:44:25.466Z,0.50
2022-09-20T13:46:53.421Z,0.60
2022-09-20T13:49:23.921Z,0.50
2022-09-20T13:51:53.214Z,0.35
2022-09-20T13:54:27.591Z,0.25
2022-09-20T13:56:58.225Z,0.20
2022-09-20T13:59:29.885Z,0.77
2022-09-20T14:01:59.268Z,0.20
2022-09-20T14:04:29.759Z,0.10
2022-09-20T14:07:00.774Z,0.10
2022-09-20T14:09:32.073Z,0.20
2022-09-20T14:12:01.188Z,0.10
2022-09-20T14:14:29.904Z,0.68
2022-09-20T14:16:58.335Z,0.50
2022-09-20T14:19:31.269Z,0.45
2022-09-20T14:22:03.723Z,0.50
2022-09-20T14:24:35.841Z,0.32
2022-09-20T14:27:18.710Z,0.30
2022-09-20T14:29:47.751Z,0.20
2022-09-20T14:32:44.130Z,0.20
2022-09-20T14:35:18.374Z,0.20
2022-09-20T14:37:50.977Z,0.45
2022-09-20T14:40:24.111Z,0.50
2022-09-20T14:42:55.347Z,0.28
2022-09-20T14:45:26.976Z,0.10
2022-09-20T14:47:58.202Z,0.30
2022-09-20T14:50:29.130Z,0.30
2022-09-20T14:53:27.727Z,2.00
2022-09-20T14:56:01.273Z,5.22
2022-09-20T14:58:29.093Z,1.98
2022-09-20T15:01:01.273Z,4.10
2022-09-20T15:03:33.270Z,5.00
2022-09-20T15:06:01.163Z,10.75
2022-09-20T15:08:30.401Z,2.05
2022-09-20T15:11:00.459Z,2.65
2022-09-20T15:13:28.345Z,0.87
2022-09-20T15:15:56.503Z,0.80
2022-09-20T15:18:26.828Z,0.40
2022-09-20T15:20:55.931Z,1.00
2022-09-20T15:23:23.677Z,0.80
2022-09-20T15:25:55.310Z,1.03
2022-09-20T15:28:23.263Z,0.70
2022-09-20T15:30:52.717Z,0.77
2022-09-20T15:33:21.527Z,0.50
2022-09-20T15:35:49.827Z,0.90
2022-09-20T15:38:18.698Z,1.50
2022-09-20T15:40:48.121Z,1.58
2022-09-20T15:43:19.757Z,1.30
2022-09-20T15:45:50.904Z,1.30
2022-09-20T15:48:20.901Z,1.40
2022-09-20T15:51:01.802Z,1.70
2022-09-20T15:53:32.349Z,1.85
2022-09-20T15:56:01.796Z,1.67
2022-09-20T15:58:35.930Z,1.90
2022-09-20T16:01:06.363Z,2.28
2022-09-20T16:03:34.993Z,2.80
2022-09-20T16:06:04.905Z,2.50
2022-09-20T16:08:33.669Z,2.00
2022-09-20T16:11:02.256Z,3.35
2022-09-20T16:13:31.679Z,2.50
2022-09-20T16:16:01.057Z,1.10
2022-09-20T16:18:46.185Z,1.50
2022-09-20T16:21:16.107Z,1.40
2022-09-20T16:23:48.547Z,0.45
2022-09-20T16:26:16.833Z,0.40
2022-09-20T16:28:49.467Z,0.30
2022-09-20T16:31:30.730Z,0.30
2022-09-20T16:34:01.098Z,0.40
2022-09-20T16:36:28.917Z,0.40
2022-09-20T16:38:57.546Z,0.10
2022-09-20T16:41:26.504Z,0.50
2022-09-20T16:43:56.331Z,2.03
2022-09-20T16:46:27.221Z,0.95
2022-09-20T16:48:56.905Z,0.63
2022-09-20T16:51:26.442Z,3.22
2022-09-20T16:53:56.221Z,3.87
2022-09-20T16:56:25.502Z,4.47
2022-09-20T16:58:57.220Z,5.50
2022-09-20T17:01:25.408Z,6.40
2022-09-20T17:03:53.287Z,6.63
2022-09-20T17:06:21.499Z,10.17
2022-09-20T17:08:58.100Z,9.57
2022-09-20T17:11:28.455Z,7.72
2022-09-20T17:13:58.220Z,7.70
2022-09-20T17:16:27.979Z,6.15
2022-09-20T17:18:58.401Z,10.77
2022-09-20T17:21:28.184Z,16.35
2022-09-20T17:23:57.738Z,21.52
2022-09-20T17:26:27.003Z,14.80
2022-09-20T17:28:58.454Z,14.05
2022-09-20T17:31:30.039Z,17.00
2022-09-20T17:34:00.292Z,12.57
2022-09-20T17:36:30.149Z,8.45
2022-09-20T17:39:04.262Z,2.20
2022-09-20T17:41:33.855Z,2.60
2022-09-20T17:44:08.117Z,1.60
2022-09-20T17:46:37.424Z,2.38
2022-09-20T17:49:07.553Z,5.82
2022-09-20T17:51:39.140Z,9.15
2022-09-20T17:54:07.611Z,6.72
2022-09-20T17:56:36.200Z,5.23
2022-09-20T17:59:06.929Z,4.90
2022-09-20T18:01:36.198Z,4.47
2022-09-20T18:04:05.745Z,4.85
2022-09-20T18:06:35.922Z,5.82
2022-09-20T18:09:06.084Z,6.17
2022-09-20T18:11:35.763Z,6.88
2022-09-20T18:14:07.472Z,8.15
2022-09-20T18:16:36.017Z,6.85
2022-09-20T18:19:04.867Z,6.13
2022-09-20T18:21:35.608Z,5.77
2022-09-20T18:24:05.833Z,5.78
2022-09-20T18:26:33.740Z,5.60
2022-09-20T18:29:03.550Z,4.88
2022-09-20T18:31:36.263Z,6.10
2022-09-20T18:34:05.583Z,5.67
2022-09-20T18:36:35.342Z,4.03
2022-09-20T18:39:03.520Z,4.35
2022-09-20T18:41:33.400Z,4.50
2022-09-20T18:44:04.204Z,4.10
2022-09-20T18:46:33.558Z,2.40
2022-09-20T18:49:05.194Z,1.20
2022-09-20T18:51:39.028Z,0.98
2022-09-20T18:54:09.101Z,1.00
2022-09-20T18:56:38.513Z,1.10
2022-09-20T18:59:08.997Z,1.70
2022-09-20T19:02:13.291Z,1.88
2022-09-20T19:05:03.588Z,1.30
2022-09-20T19:07:38.997Z,2.45
2022-09-20T19:10:16.503Z,4.05
2022-09-20T19:12:51.594Z,4.90
2022-09-20T19:15:30.489Z,7.10
2022-09-20T19:18:10.207Z,3.92
2022-09-20T19:20:44.808Z,3.33
2022-09-20T19:23:31.433Z,2.50
2022-09-20T19:26:07.559Z,1.37
2022-09-20T19:28:36.316Z,1.95
2022-09-20T19:31:05.172Z,3.22
2022-09-20T19:33:35.104Z,2.55
2022-09-20T19:36:03.714Z,2.47
2022-09-20T19:38:38.956Z,2.37
2022-09-20T19:41:20.892Z,2.40
2022-09-20T19:43:59.805Z,1.52
2022-09-20T19:46:42.680Z,1.52
2022-09-20T19:49:16.244Z,5.57
2022-09-20T19:51:45.491Z,6.63
2022-09-20T19:54:14.909Z,13.35
2022-09-20T19:56:53.054Z,11.55
2022-09-20T19:59:22.078Z,8.30
2022-09-20T20:01:50.631Z,5.88
2022-09-20T20:04:20.642Z,4.70
2022-09-20T20:06:58.137Z,3.75
2022-09-20T20:09:34.917Z,2.95
2022-09-20T20:12:09.929Z,3.42
2022-09-20T20:14:48.373Z,2.70
2022-09-20T20:17:29.752Z,2.13
2022-09-20T20:20:24.222Z,1.83
2022-09-20T20:23:27.942Z,1.10
2022-09-20T20:26:02.953Z,1.20
2022-09-20T20:28:31.508Z,1.17
2022-09-20T20:31:02.084Z,1.80
2022-09-20T20:33:30.472Z,1.30
2022-09-20T20:36:00.682Z,1.08
2022-09-20T20:38:30.180Z,1.42
2022-09-20T20:41:04.700Z,2.55
2022-09-20T20:43:33.348Z,3.03
2022-09-20T20:46:01.223Z,2.40
2022-09-20T20:48:29.341Z,2.28
2022-09-20T20:51:05.604Z,2.70
2022-09-20T20:53:36.966Z,3.30
2022-09-20T20:56:07.680Z,2.97
2022-09-20T20:58:37.040Z,3.13
2022-09-20T21:01:09.610Z,3.10
2022-09-20T21:03:37.657Z,3.60
2022-09-20T21:06:07.641Z,3.42
2022-09-20T21:08:37.286Z,3.70
2022-09-20T21:11:07.281Z,3.70
2022-09-20T21:13:35.408Z,3.55
2022-09-20T21:16:05.648Z,3.83
2022-09-20T21:18:33.649Z,4.07
2022-09-20T21:21:02.674Z,4.47
2022-09-20T21:23:34.433Z,4.00
2022-09-20T21:26:08.575Z,3.88
2022-09-20T21:28:37.723Z,3.35
2022-09-20T21:31:06.985Z,4.45
2022-09-20T21:33:36.416Z,4.30
2022-09-20T21:36:05.915Z,3.90
2022-09-20T21:38:34.932Z,3.08
2022-09-20T21:41:04.469Z,3.53
2022-09-20T21:43:33.509Z,2.90
2022-09-20T21:46:03.330Z,2.50
2022-09-20T21:48:31.734Z,2.80
2022-09-20T21:51:05.202Z,2.00
2022-09-20T21:53:33.599Z,1.75
2022-09-20T21:56:04.875Z,2.10
2022-09-20T21:58:32.922Z,2.00
2022-09-20T22:01:02.316Z,1.70
2022-09-20T22:03:38.652Z,1.83
2022-09-20T22:06:08.685Z,1.80
2022-09-20T22:08:38.266Z,1.83
2022-09-20T22:11:14.977Z,1.70
2022-09-20T22:13:46.315Z,1.55
2022-09-20T22:16:16.712Z,1.20
2022-09-20T22:18:45.302Z,1.40
2022-09-20T22:21:16.946Z,1.30
2022-09-20T22:23:45.293Z,1.47
2022-09-20T22:26:17.263Z,1.35
2022-09-20T22:28:45.500Z,1.50
2022-09-20T22:31:19.543Z,2.25
2022-09-20T22:33:50.472Z,2.45
2022-09-20T22:36:21.510Z,1.80
2022-09-20T22:38:49.661Z,2.10
2022-09-20T22:41:21.258Z,1.70
2022-09-20T22:43:49.666Z,1.40
2022-09-20T22:46:19.752Z,1.23
2022-09-20T22:48:51.873Z,1.60
2022-09-20T22:51:21.408Z,1.58
2022-09-20T22:53:49.860Z,1.92
2022-09-20T22:56:19.581Z,1.42
2022-09-20T22:58:51.025Z,2.10
2022-09-20T23:01:20.934Z,1.73
2022-09-20T23:03:54.576Z,1.65
2022-09-20T23:06:24.940Z,1.60
2022-09-20T23:08:54.443Z,1.33
2022-09-20T23:11:23.189Z,1.20
2022-09-20T23:13:54.900Z,1.20
2022-09-20T23:16:24.605Z,1.10
2022-09-20T23:18:56.978Z,1.30
2022-09-20T23:21:25.823Z,1.05
2022-09-20T23:23:54.753Z,0.98
2022-09-20T23:26:25.551Z,0.80
2022-09-20T23:28:57.557Z,1.10
2022-09-20T23:31:26.552Z,1.02
2022-09-20T23:33:56.532Z,0.80
2022-09-20T23:36:26.002Z,0.82
2022-09-20T23:38:55.409Z,1.03
2022-09-20T23:41:24.803Z,0.70
2022-09-20T23:43:54.206Z,0.60
2022-09-20T23:46:23.958Z,0.90
2022-09-20T23:48:51.543Z,0.80
2022-09-20T23:51:21.739Z,0.80
2022-09-20T23:53:50.845Z,0.70
2022-09-20T23:56:19.010Z,1.05
2022-09-20T23:58:48.540Z,0.90
